Time;durP1;ratioP1;P1;durP2;ratioP2;P2;SDS_P1;SDS_P2;PMS_P1;PMS_P2;Temp;Humidity;BMP_temperature;BMP_pressure;BME280_temperature;BME280_humidity;BME280_pressure;Samples;Min_cycle;Max_cycle;Signal;HPM_P1;HPM_P2
2022/12/12 00:00:17;;;;;;;50.60;19.70;;;;;;;-3.88;100.00;100521.22;5044684;28;20397;-71
2022/12/12 00:02:42;;;;;;;;;;;;;;;-3.86;100.00;100528.03;5043296;28;20100;-72
2022/12/12 00:05:09;;;;;;;58.83;22.10;;;;;;;-3.94;100.00;100517.13;5038065;28;19916;-71
2022/12/12 00:07:34;;;;;;;55.80;22.77;;;;;;;-4.02;100.00;100514.06;5043805;28;20029;-71
2022/12/12 00:10:00;;;;;;;50.38;20.30;;;;;;;-4.03;100.00;100504.53;5034846;28;20044;-71
2022/12/12 00:12:25;;;;;;;50.35;19.85;;;;;;;-4.03;100.00;100501.94;5033746;28;20032;-70
2022/12/12 00:14:51;;;;;;;48.03;20.58;;;;;;;-4.00;100.00;100511.34;5041965;28;20040;-71
2022/12/12 00:17:19;;;;;;;48.40;21.45;;;;;;;-3.95;100.00;100520.66;5018619;28;20044;-71
2022/12/12 00:19:45;;;;;;;48.42;20.83;;;;;;;-3.87;100.00;100531.56;5035054;28;20034;-73
2022/12/12 00:22:13;;;;;;;47.38;19.63;;;;;;;-3.80;100.00;100533.88;5016229;28;20596;-75
2022/12/12 00:24:38;;;;;;;54.13;20.08;;;;;;;-3.76;100.00;100533.66;5019025;28;20033;-74
2022/12/12 00:27:04;;;;;;;49.53;20.92;;;;;;;-3.76;100.00;100538.84;5032398;28;20571;-73
2022/12/12 00:29:29;;;;;;;47.38;21.98;;;;;;;-3.69;100.00;100542.84;5028378;28;20512;-73
2022/12/12 00:31:54;;;;;;;52.83;22.33;;;;;;;-3.70;100.00;100540.31;5024627;28;20052;-70
2022/12/12 00:34:20;;;;;;;45.67;22.27;;;;;;;-3.61;100.00;100545.94;5026463;28;20064;-70
2022/12/12 00:36:45;;;;;;;;;;;;;;;-3.52;100.00;100557.66;5044318;28;20139;-71
2022/12/12 00:39:11;;;;;;;52.90;22.33;;;;;;;-3.54;100.00;100556.88;5009604;28;19913;-70
2022/12/12 00:41:36;;;;;;;;;;;;;;;-3.46;100.00;100557.34;5025928;28;20060;-71
2022/12/12 00:44:02;;;;;;;;;;;;;;;-3.44;100.00;100557.28;5023954;28;19924;-73
2022/12/12 00:46:27;;;;;;;51.45;21.50;;;;;;;-3.44;100.00;100545.06;5016477;28;19908;-70
2022/12/12 00:48:54;;;;;;;;;;;;;;;-3.34;100.00;100549.84;5024895;28;20060;-70
2022/12/12 00:51:21;;;;;;;51.38;20.25;;;;;;;-3.33;100.00;100538.44;5012597;28;19916;-71
2022/12/12 00:53:48;;;;;;;49.78;20.00;;;;;;;-3.32;100.00;100525.31;5042644;28;20036;-70
2022/12/12 00:56:19;;;;;;;48.42;22.25;;;;;;;-3.26;100.00;100525.00;5026205;28;20381;-75
2022/12/12 00:58:44;;;;;;;45.10;20.90;;;;;;;-3.30;100.00;100506.94;5015462;28;20105;-71
2022/12/12 01:01:16;;;;;;;48.33;20.65;;;;;;;-3.25;100.00;100495.38;5042522;28;20090;-71
2022/12/12 01:03:41;;;;;;;50.40;22.77;;;;;;;-3.19;100.00;100492.41;5033423;28;20029;-70
2022/12/12 01:06:07;;;;;;;44.85;20.75;;;;;;;-3.17;100.00;100487.13;5041423;28;20033;-70
2022/12/12 01:08:35;;;;;;;43.15;19.13;;;;;;;-3.14;100.00;100481.72;5033653;28;20029;-71
2022/12/12 01:11:00;;;;;;;;;;;;;;;-3.13;100.00;100472.16;5024946;28;20026;-71
2022/12/12 01:13:27;;;;;;;44.58;19.63;;;;;;;-3.14;100.00;100471.28;5025539;28;19921;-73
2022/12/12 01:15:52;;;;;;;;;;;;;;;-3.23;100.00;100456.97;5041642;28;20498;-72
2022/12/12 01:18:21;;;;;;;48.05;19.80;;;;;;;-3.19;100.00;100448.03;5032391;28;19920;-71
2022/12/12 01:20:46;;;;;;;47.90;19.50;;;;;;;-3.19;100.00;100444.56;5009477;28;20176;-71
2022/12/12 01:23:12;;;;;;;37.65;16.95;;;;;;;-3.09;100.00;100461.44;5030777;28;20111;-70
2022/12/12 01:25:38;;;;;;;46.05;17.67;;;;;;;-3.04;100.00;100464.66;5018453;28;21049;-71
2022/12/12 01:28:06;;;;;;;38.05;17.40;;;;;;;-3.00;100.00;100466.19;5025301;28;20090;-75
2022/12/12 01:30:32;;;;;;;44.63;19.73;;;;;;;-3.03;100.00;100463.72;5019186;28;20025;-71
2022/12/12 01:32:58;;;;;;;44.38;19.55;;;;;;;-2.96;100.00;100456.41;5026125;28;20041;-72
2022/12/12 01:35:24;;;;;;;37.30;17.27;;;;;;;-2.92;100.00;100468.38;5026221;28;20506;-74
2022/12/12 01:37:49;;;;;;;;;;;;;;;-2.92;100.00;100476.22;5026772;28;20041;-72
2022/12/12 01:40:27;;;;;;;46.25;18.85;;;;;;;-2.86;100.00;100483.69;5019352;28;20262;-74
2022/12/12 01:42:53;;;;;;;48.22;20.40;;;;;;;-2.89;100.00;100475.19;5016707;28;20035;-70
2022/12/12 01:45:56;;;;;;;47.83;19.60;;;;;;;-2.91;100.00;100479.66;5036147;28;20036;-74
2022/12/12 01:48:35;;;;;;;45.42;19.88;;;;;;;-2.84;100.00;100496.69;5034210;28;20052;-71
2022/12/12 01:51:05;;;;;;;47.90;20.73;;;;;;;-2.80;100.00;100500.84;5020418;28;20127;-71
2022/12/12 01:53:33;;;;;;;56.95;22.10;;;;;;;-2.82;100.00;100502.69;5030198;28;20041;-71
2022/12/12 01:56:02;;;;;;;47.00;20.17;;;;;;;-2.73;100.00;100523.09;5023309;28;20091;-75
2022/12/12 01:58:29;;;;;;;51.00;20.67;;;;;;;-2.70;100.00;100530.75;5030587;28;20041;-75
2022/12/12 02:00:54;;;;;;;47.00;20.65;;;;;;;-2.63;100.00;100555.63;5014697;28;20029;-71
2022/12/12 02:03:19;;;;;;;48.80;21.48;;;;;;;-2.64;100.00;100548.72;5026559;28;20041;-71
2022/12/12 02:05:53;;;;;;;45.40;19.35;;;;;;;-2.61;100.00;100545.09;5026153;28;20025;-70
2022/12/12 02:08:21;;;;;;;41.58;18.75;;;;;;;-2.69;100.00;100545.53;5014308;28;20449;-71
2022/12/12 02:10:47;;;;;;;39.40;18.63;;;;;;;-2.63;100.00;100558.25;5039958;28;20545;-71
2022/12/12 02:13:17;;;;;;;38.92;17.17;;;;;;;-2.61;100.00;100574.69;5015185;28;20136;-72
2022/12/12 02:16:03;;;;;;;38.33;18.55;;;;;;;-2.58;100.00;100577.13;5025805;28;20928;-73
2022/12/12 02:18:48;;;;;;;36.05;16.60;;;;;;;-2.55;100.00;100590.06;5012507;28;20047;-71
2022/12/12 02:21:34;;;;;;;42.35;17.60;;;;;;;-2.50;100.00;100600.28;5042377;28;20033;-74
2022/12/12 02:24:20;;;;;;;39.92;16.75;;;;;;;-2.50;100.00;100597.66;5026587;28;20029;-71
2022/12/12 02:27:04;;;;;;;37.63;15.15;;;;;;;-2.55;100.00;100597.06;5039960;28;20112;-70
2022/12/12 02:29:48;;;;;;;25.17;13.48;;;;;;;-2.55;100.00;100610.97;5008647;28;20642;-71
2022/12/12 02:32:32;;;;;;;41.95;17.70;;;;;;;-2.49;100.00;100612.41;5024773;28;20052;-72
2022/12/12 02:35:14;;;;;;;32.58;15.35;;;;;;;-2.50;100.00;100612.50;5001291;28;20652;-70
2022/12/12 02:37:49;;;;;;;36.25;15.10;;;;;;;-2.48;100.00;100610.63;5005668;28;20040;-70
2022/12/12 02:40:21;;;;;;;34.00;16.10;;;;;;;-2.46;100.00;100621.84;5019994;28;20060;-70
2022/12/12 02:42:59;;;;;;;32.72;14.40;;;;;;;-2.44;100.00;100618.22;5041300;28;20056;-70
2022/12/12 02:45:37;;;;;;;32.05;14.85;;;;;;;-2.43;100.00;100625.16;5037331;28;20638;-70
2022/12/12 02:48:12;;;;;;;35.85;15.32;;;;;;;-2.39;100.00;100625.81;5025862;28;20053;-71
2022/12/12 02:50:39;;;;;;;38.45;16.85;;;;;;;-2.38;100.00;100630.13;5024927;28;20034;-70
2022/12/12 02:53:05;;;;;;;38.80;15.73;;;;;;;-2.46;100.00;100625.31;5028412;28;20407;-72
2022/12/12 02:55:30;;;;;;;38.22;15.80;;;;;;;-2.44;100.00;100630.47;5023788;28;20044;-69
2022/12/12 02:57:56;;;;;;;38.55;16.75;;;;;;;-2.39;100.00;100631.91;5035281;28;20734;-69
2022/12/12 03:00:21;;;;;;;44.72;17.92;;;;;;;-2.35;100.00;100638.66;5007536;28;20044;-71
2022/12/12 03:07:45;;;;;;;37.53;16.15;;;;;;;-2.32;100.00;100650.72;5025561;28;20018;-73
2022/12/12 03:08:57;;;;;;;40.22;18.60;;;;;;;-2.32;100.00;100653.31;5042353;28;20036;-73
2022/12/12 03:11:36;;;;;;;45.50;19.88;;;;;;;-2.29;100.00;100653.19;5030811;28;20905;-70
2022/12/12 03:14:22;;;;;;;50.97;20.17;;;;;;;-2.30;100.00;100645.41;5036915;28;20030;-70
2022/12/12 03:17:27;;;;;;;46.53;21.52;;;;;;;-2.22;100.00;100653.69;5033649;28;20270;-71
2022/12/12 03:19:58;;;;;;;45.83;18.73;;;;;;;-2.14;100.00;100662.78;5040168;28;20376;-69
2022/12/12 03:22:36;;;;;;;53.22;21.83;;;;;;;-2.21;100.00;100644.91;5025098;28;20053;-70
2022/12/12 03:25:23;;;;;;;49.92;21.05;;;;;;;-2.18;100.00;100645.59;5031305;28;20037;-70
2022/12/12 03:28:02;;;;;;;51.22;21.35;;;;;;;-2.17;100.00;100639.44;5029411;28;20037;-70
2022/12/12 03:30:32;;;;;;;48.40;20.30;;;;;;;-2.13;100.00;100643.56;5041131;28;20078;-74
2022/12/12 03:33:02;;;;;;;42.53;18.33;;;;;;;-2.15;100.00;100637.56;5028637;28;20687;-69
2022/12/12 03:35:39;;;;;;;42.55;17.40;;;;;;;-2.08;100.00;100650.31;5035035;28;20064;-69
2022/12/12 03:38:30;;;;;;;43.10;19.50;;;;;;;-2.08;100.00;100639.84;5028846;28;20041;-71
2022/12/12 03:40:59;;;;;;;41.25;17.38;;;;;;;-2.14;100.00;100631.41;5015613;28;20039;-71
2022/12/12 03:43:30;;;;;;;33.80;16.67;;;;;;;-2.12;100.00;100618.25;5010838;28;20025;-71
2022/12/12 03:46:27;;;;;;;40.83;17.95;;;;;;;-2.14;100.00;100615.72;5028513;28;20052;-69
2022/12/12 03:49:07;;;;;;;36.50;15.15;;;;;;;-2.18;100.00;100598.53;5030069;28;20505;-70
2022/12/12 03:51:42;;;;;;;37.20;15.18;;;;;;;-2.21;100.00;100587.38;5010399;28;20045;-71
2022/12/12 03:54:16;;;;;;;31.13;13.48;;;;;;;-2.34;100.00;100582.81;5011917;28;20144;-71
2022/12/12 03:56:53;;;;;;;28.67;12.45;;;;;;;-2.32;100.00;100574.88;5028652;28;20029;-72
2022/12/12 03:59:25;;;;;;;31.40;12.68;;;;;;;-2.32;100.00;100569.63;5029130;28;20415;-70
2022/12/12 04:01:56;;;;;;;29.02;12.95;;;;;;;-2.30;100.00;100561.72;5010449;28;20434;-69
2022/12/12 04:04:38;;;;;;;26.10;12.30;;;;;;;-2.27;100.00;100561.53;5028819;28;20048;-71
2022/12/12 04:07:12;;;;;;;26.27;11.77;;;;;;;-2.36;100.00;100549.84;5011017;28;20563;-71
2022/12/12 04:15:34;;;;;;;18.23;10.75;;;;;;;-2.61;100.00;100505.91;5029501;28;20079;-71
2022/12/12 04:18:25;;;;;;;18.98;9.25;;;;;;;-2.72;100.00;100489.94;5029315;28;20041;-70
2022/12/12 04:24:31;;;;;;;21.17;10.05;;;;;;;-2.96;100.00;100469.47;5018306;28;20534;-70
2022/12/12 04:27:00;;;;;;;21.42;9.80;;;;;;;-3.01;100.00;100461.03;5026208;28;20046;-70
2022/12/12 04:29:45;;;;;;;22.13;10.50;;;;;;;-3.10;100.00;100462.38;5010469;28;20034;-71
2022/12/12 04:32:17;;;;;;;18.25;8.93;;;;;;;-3.10;100.00;100464.13;5013198;28;20037;-71
2022/12/12 04:34:55;;;;;;;15.43;8.45;;;;;;;-3.24;100.00;100449.19;5009717;28;20904;-69
2022/12/12 04:37:25;;;;;;;17.73;8.30;;;;;;;-3.27;100.00;100454.59;5018157;28;20037;-71
2022/12/12 04:39:53;;;;;;;22.08;8.50;;;;;;;-3.27;100.00;100451.97;5027335;28;20065;-71
2022/12/12 04:42:23;;;;;;;16.98;8.27;;;;;;;-3.32;100.00;100451.38;5009758;28;20112;-71
2022/12/12 04:44:51;;;;;;;20.50;8.82;;;;;;;-3.38;100.00;100446.47;5027151;28;20041;-69
2022/12/12 04:47:18;;;;;;;14.13;8.10;;;;;;;-3.41;100.00;100448.31;5029024;28;20037;-71
2022/12/12 04:49:47;;;;;;;16.05;8.30;;;;;;;-3.41;100.00;100450.09;5027249;28;20483;-70
2022/12/12 04:52:16;;;;;;;16.70;8.13;;;;;;;-3.45;100.00;100441.56;5009356;28;20026;-71
2022/12/12 04:55:18;;;;;;;16.83;8.60;;;;;;;-3.50;100.00;100447.97;5027252;28;20037;-71
2022/12/12 04:57:49;;;;;;;16.33;8.13;;;;;;;-3.50;100.00;100453.19;4976887;28;20049;-70
2022/12/12 05:00:15;;;;;;;17.50;8.38;;;;;;;-3.52;100.00;100455.88;5025582;28;20037;-71
2022/12/12 05:03:03;;;;;;;18.33;7.50;;;;;;;-3.59;100.00;100446.66;5027188;28;20030;-71
2022/12/12 05:05:40;;;;;;;17.60;7.55;;;;;;;-3.60;100.00;100452.81;5018313;28;20044;-70
2022/12/12 05:08:09;;;;;;;14.65;8.25;;;;;;;-3.67;100.00;100448.84;5011117;28;20410;-71
2022/12/12 05:10:44;;;;;;;16.85;8.00;;;;;;;-3.72;100.00;100462.13;5026676;28;20025;-71
2022/12/12 05:13:16;;;;;;;19.48;7.78;;;;;;;-3.71;100.00;100460.34;5027168;28;20457;-70
2022/12/12 05:15:43;;;;;;;17.48;7.95;;;;;;;-3.82;100.00;100448.72;5014597;28;20034;-71
2022/12/12 05:18:10;;;;;;;14.80;7.57;;;;;;;-3.88;100.00;100446.41;5021546;28;20120;-70
2022/12/12 05:20:35;;;;;;;16.02;8.27;;;;;;;-3.99;100.00;100440.88;5011281;28;20029;-71
2022/12/12 05:23:01;;;;;;;18.10;7.82;;;;;;;-4.04;100.00;100448.94;5026313;28;20037;-71
2022/12/12 05:25:26;;;;;;;;;;;;;;;-4.10;100.00;100437.97;5026160;28;20033;-71
2022/12/12 05:27:51;;;;;;;19.40;7.90;;;;;;;-4.17;100.00;100444.41;5010210;28;19908;-71
2022/12/12 05:30:17;;;;;;;16.17;7.15;;;;;;;-4.25;100.00;100448.22;5008873;28;20572;-71
2022/12/12 05:32:42;;;;;;;11.40;6.43;;;;;;;-4.33;100.00;100444.31;5026137;28;20038;-71
2022/12/12 05:35:09;;;;;;;19.65;7.75;;;;;;;-4.38;100.00;100441.91;5021586;28;20112;-70
2022/12/12 05:37:34;;;;;;;14.93;7.57;;;;;;;-4.43;100.00;100446.53;5010561;28;20061;-71
2022/12/12 05:40:00;;;;;;;18.48;7.60;;;;;;;-4.40;100.00;100446.41;5026065;28;20060;-71
2022/12/12 05:42:25;;;;;;;15.02;7.00;;;;;;;-4.46;100.00;100446.69;5031668;28;20119;-70
2022/12/12 05:44:50;;;;;;;;;;;;;;;-4.46;100.00;100452.72;4995863;28;20391;-70
2022/12/12 05:47:17;;;;;;;14.07;6.88;;;;;;;-4.46;100.00;100462.31;5026238;28;19963;-71
2022/12/12 05:49:43;;;;;;;16.83;7.88;;;;;;;-4.38;100.00;100483.63;5025857;28;20041;-70
2022/12/12 05:52:08;;;;;;;16.60;7.65;;;;;;;-4.42;100.00;100486.47;5032575;28;20025;-70
2022/12/12 05:54:34;;;;;;;;;;;;;;;-4.45;100.00;100500.47;5008554;28;20091;-71
2022/12/12 05:56:59;;;;;;;;;;;;;;;-4.51;100.00;100496.41;5026332;28;20321;-71
2022/12/12 05:59:24;;;;;;;16.97;8.10;;;;;;;-4.37;100.00;100508.78;5011783;28;19955;-71
2022/12/12 06:01:49;;;;;;;;;;;;;;;-4.36;100.00;100520.88;4992143;28;20083;-71
2022/12/12 06:04:15;;;;;;;14.67;7.77;;;;;;;-4.42;100.00;100526.41;5011824;28;20441;-71
2022/12/12 06:06:40;;;;;;;;;;;;;;;-4.52;100.00;100527.75;5026025;28;20036;-71
2022/12/12 06:09:08;;;;;;;21.10;8.70;;;;;;;-4.73;100.00;100522.63;5025975;28;20405;-70
2022/12/12 06:11:34;;;;;;;16.98;8.82;;;;;;;-4.81;100.00;100514.31;5025014;28;20055;-70
2022/12/12 06:14:00;;;;;;;16.17;8.23;;;;;;;-4.86;100.00;100528.47;5025325;28;20091;-71
2022/12/12 06:16:25;;;;;;;;;;;;;;;-4.88;100.00;100533.72;5007850;28;20021;-71
2022/12/12 06:18:52;;;;;;;24.60;10.90;;;;;;;-5.05;100.00;100518.03;5009133;28;19921;-71
2022/12/12 06:21:17;;;;;;;24.15;10.05;;;;;;;-5.09;100.00;100536.38;5025115;28;20025;-70
2022/12/12 06:23:42;;;;;;;19.33;8.85;;;;;;;-5.13;100.00;100536.56;5010478;28;20443;-70
2022/12/12 06:26:10;;;;;;;21.77;8.30;;;;;;;-5.18;100.00;100539.38;5025105;28;20025;-69
2022/12/12 06:28:37;;;;;;;19.80;9.02;;;;;;;-5.26;100.00;100541.50;5024514;28;20038;-70
2022/12/12 06:31:03;;;;;;;17.15;8.55;;;;;;;-5.30;100.00;100539.94;5007185;28;20474;-69
2022/12/12 06:33:30;;;;;;;18.85;9.00;;;;;;;-5.30;100.00;100538.16;5007332;28;20088;-70
2022/12/12 06:36:07;;;;;;;20.58;9.10;;;;;;;-5.25;100.00;100550.13;5006747;28;20024;-71
2022/12/12 06:38:34;;;;;;;22.10;10.02;;;;;;;-5.26;100.00;100549.31;5024450;28;20029;-70
2022/12/12 06:41:04;;;;;;;22.63;9.63;;;;;;;-5.31;100.00;100554.69;5005512;28;20031;-70
2022/12/12 06:43:29;;;;;;;15.98;8.05;;;;;;;-5.34;100.00;100551.38;5025155;28;20033;-70
2022/12/12 06:45:59;;;;;;;22.95;9.73;;;;;;;-5.36;100.00;100550.59;5024826;28;20044;-70
2022/12/12 06:48:25;;;;;;;19.00;9.82;;;;;;;-5.31;100.00;100556.47;5024636;28;20029;-70
2022/12/12 06:50:50;;;;;;;23.88;11.00;;;;;;;-5.21;100.00;100570.75;5008816;28;20044;-71
2022/12/12 06:53:15;;;;;;;;;;;;;;;-5.17;100.00;100569.72;5025631;28;20042;-71
2022/12/12 06:55:42;;;;;;;19.77;9.88;;;;;;;-5.15;100.00;100562.69;5024491;28;20343;-70
2022/12/12 06:58:08;;;;;;;22.55;11.18;;;;;;;-5.12;100.00;100575.56;5027595;28;20924;-70
2022/12/12 07:00:33;;;;;;;27.27;12.35;;;;;;;-5.03;100.00;100589.09;4992038;28;20041;-70
2022/12/12 07:02:58;;;;;;;;;;;;;;;-5.02;100.00;100591.63;5024042;28;20273;-70
2022/12/12 07:05:24;;;;;;;24.95;10.57;;;;;;;-4.99;100.00;100588.88;5023707;28;19909;-70
2022/12/12 07:07:49;;;;;;;;;;;;;;;-4.89;100.00;100594.56;5023524;28;20494;-70
2022/12/12 07:10:14;;;;;;;23.77;10.00;;;;;;;-4.84;100.00;100602.16;5025075;28;19913;-70
2022/12/12 07:12:40;;;;;;;;;;;;;;;-4.81;100.00;100608.06;5007642;28;20044;-70
2022/12/12 07:15:06;;;;;;;19.50;9.82;;;;;;;-4.75;100.00;100607.81;5024435;28;19909;-69
2022/12/12 07:17:32;;;;;;;24.25;11.48;;;;;;;-4.68;100.00;100614.44;5010360;28;20092;-70
2022/12/12 07:19:57;;;;;;;30.25;11.77;;;;;;;-4.61;100.00;100620.22;5022252;28;20093;-70
2022/12/12 07:22:22;;;;;;;25.23;10.10;;;;;;;-4.56;100.00;100631.28;5024191;28;20033;-68
2022/12/12 07:24:49;;;;;;;;;;;;;;;-4.52;100.00;100629.38;5007389;28;20506;-70
2022/12/12 07:27:14;;;;;;;23.10;11.63;;;;;;;-4.60;100.00;100623.66;5024672;28;19913;-70
2022/12/12 07:29:39;;;;;;;27.25;11.73;;;;;;;-4.57;100.00;100626.97;5023547;28;20041;-69
2022/12/12 07:32:05;;;;;;;;;;;;;;;-4.51;100.00;100641.50;5024368;28;20056;-70
2022/12/12 07:34:31;;;;;;;24.30;12.23;;;;;;;-4.54;100.00;100632.06;5010062;28;19960;-70
2022/12/12 07:36:56;;;;;;;31.90;13.73;;;;;;;-4.52;100.00;100639.78;5022283;28;20095;-70
2022/12/12 07:39:22;;;;;;;28.17;12.15;;;;;;;-4.56;100.00;100638.25;5006276;28;20029;-69
2022/12/12 07:41:47;;;;;;;29.98;12.85;;;;;;;-4.59;100.00;100633.16;5022073;28;20095;-70
2022/12/12 07:44:14;;;;;;;;;;;;;;;-4.70;100.00;100623.25;5010968;28;20028;-69
2022/12/12 07:46:39;;;;;;;28.20;12.73;;;;;;;-4.77;100.00;100619.22;5023250;28;19919;-70
2022/12/12 07:49:04;;;;;;;37.60;14.85;;;;;;;-4.82;100.00;100621.16;5024076;28;20034;-70
2022/12/12 07:51:30;;;;;;;;;;;;;;;-4.85;100.00;100622.13;5024875;28;20120;-70
2022/12/12 07:53:56;;;;;;;35.70;15.05;;;;;;;-4.92;100.00;100616.38;5010189;28;19944;-70
2022/12/12 07:56:21;;;;;;;;;;;;;;;-4.88;100.00;100617.91;5006941;28;20402;-70
2022/12/12 07:58:47;;;;;;;29.00;13.60;;;;;;;-4.83;100.00;100628.13;5006534;28;19909;-68
2022/12/12 08:01:14;;;;;;;;;;;;;;;-4.79;100.00;100629.69;5024717;28;20092;-71
2022/12/12 08:03:40;;;;;;;29.63;14.30;;;;;;;-4.75;100.00;100620.84;5023287;28;19909;-73
2022/12/12 08:06:06;;;;;;;30.40;12.82;;;;;;;-4.69;100.00;100630.97;5023963;28;20041;-70
2022/12/12 08:08:32;;;;;;;28.67;12.90;;;;;;;-4.61;100.00;100632.38;5023897;28;20036;-70
2022/12/12 08:10:57;;;;;;;;;;;;;;;-4.52;100.00;100640.66;5025177;28;20144;-69
2022/12/12 08:13:23;;;;;;;36.20;16.17;;;;;;;-4.47;100.00;100635.25;5024540;28;20446;-69
2022/12/12 08:15:48;;;;;;;33.55;13.30;;;;;;;-4.35;100.00;100646.88;5024098;28;20037;-71
2022/12/12 08:18:14;;;;;;;34.47;15.18;;;;;;;-4.19;100.00;100652.19;5024867;28;20034;-70
2022/12/12 08:20:40;;;;;;;34.25;14.30;;;;;;;-4.11;100.00;100660.53;5023612;28;20136;-69
2022/12/12 08:23:06;;;;;;;33.67;14.65;;;;;;;-4.06;100.00;100679.41;5023832;28;20025;-70
2022/12/12 08:25:33;;;;;;;;;;;;;;;-3.96;100.00;100674.59;5008001;28;20399;-70
2022/12/12 08:27:58;;;;;;;29.25;13.57;;;;;;;-3.91;100.00;100670.03;5022881;28;19920;-70
2022/12/12 08:30:24;;;;;;;30.70;14.35;;;;;;;-3.93;100.00;100664.06;5010894;28;20402;-69
2022/12/12 08:32:49;;;;;;;30.17;13.57;;;;;;;-3.94;100.00;100672.78;5004464;28;20029;-70
2022/12/12 08:35:14;;;;;;;31.60;14.50;;;;;;;-3.87;100.00;100672.41;5024447;28;20068;-70
2022/12/12 08:37:40;;;;;;;29.80;13.13;;;;;;;-3.72;100.00;100683.03;5022444;28;20029;-70
2022/12/12 08:40:06;;;;;;;31.08;13.10;;;;;;;-3.61;100.00;100696.44;5008823;28;20574;-70
2022/12/12 08:42:31;;;;;;;;;;;;;;;-3.49;100.00;100702.81;5023675;28;20022;-69
2022/12/12 08:44:57;;;;;;;29.77;12.73;;;;;;;-3.45;100.00;100699.16;5021883;28;20053;-70
2022/12/12 08:47:22;;;;;;;29.95;14.15;;;;;;;-3.36;100.00;100700.47;5006183;28;20678;-70
2022/12/12 08:49:47;;;;;;;;;;;;;;;-3.24;100.00;100702.47;5005864;28;20044;-69
2022/12/12 08:52:13;;;;;;;30.23;13.33;;;;;;;-3.15;100.00;100699.41;5025240;28;19913;-69
2022/12/12 08:54:38;;;;;;;30.77;13.85;;;;;;;-3.08;100.00;100705.19;5007172;28;20056;-70
2022/12/12 08:57:04;;;;;;;30.95;13.38;;;;;;;-3.05;100.00;100705.88;5021362;28;20029;-70
2022/12/12 08:59:29;;;;;;;32.25;13.52;;;;;;;-2.99;100.00;100709.97;5023427;28;20037;-70
2022/12/12 09:01:54;;;;;;;37.55;14.60;;;;;;;-2.97;100.00;100708.97;4991069;28;20026;-70
2022/12/12 09:04:20;;;;;;;33.85;14.27;;;;;;;-2.90;100.00;100706.00;5007728;28;20116;-70
2022/12/12 09:06:45;;;;;;;29.42;12.70;;;;;;;-2.74;100.00;100714.78;5004354;28;20036;-71
2022/12/12 09:09:14;;;;;;;30.67;15.43;;;;;;;-2.67;100.00;100715.31;5009144;28;20494;-70
2022/12/12 09:11:39;;;;;;;29.45;13.30;;;;;;;-2.65;100.00;100719.53;5022143;28;20029;-70
2022/12/12 09:14:05;;;;;;;27.98;12.90;;;;;;;-2.56;100.00;100715.59;5021533;28;20505;-70
2022/12/12 09:16:32;;;;;;;29.08;13.07;;;;;;;-2.56;100.00;100716.44;5022749;28;20049;-70
2022/12/12 09:18:57;;;;;;;35.45;16.77;;;;;;;-2.48;100.00;100720.44;5020142;28;20125;-70
2022/12/12 09:21:23;;;;;;;31.95;13.85;;;;;;;-2.54;100.00;100719.00;5022145;28;20046;-69
2022/12/12 09:23:48;;;;;;;36.53;18.05;;;;;;;-2.41;100.00;100733.13;5005103;28;20045;-70
2022/12/12 09:26:14;;;;;;;35.72;15.10;;;;;;;-2.38;100.00;100716.44;5022734;28;20029;-70
2022/12/12 09:28:39;;;;;;;32.25;15.25;;;;;;;-2.33;100.00;100724.88;5007023;28;20048;-70
2022/12/12 09:31:07;;;;;;;34.22;16.50;;;;;;;-2.19;100.00;100727.59;5021871;28;20113;-70
2022/12/12 09:33:33;;;;;;;35.53;16.13;;;;;;;-2.29;100.00;100715.94;5022381;28;20052;-70
2022/12/12 09:36:02;;;;;;;35.80;15.73;;;;;;;-2.22;100.00;100717.31;5013076;28;20030;-70
2022/12/12 09:38:27;;;;;;;40.47;15.57;;;;;;;-2.10;100.00;100725.44;5003910;28;20038;-72
2022/12/12 09:40:59;;;;;;;36.95;17.77;;;;;;;-1.96;100.00;100729.00;5006440;28;20095;-73
2022/12/12 09:43:36;;;;;;;38.28;17.65;;;;;;;-1.54;100.00;100745.91;5011041;28;20040;-69
2022/12/12 09:46:04;;;;;;;32.55;14.73;;;;;;;-1.09;100.00;100753.88;5021670;28;20038;-70
2022/12/12 09:48:41;;;;;;;30.60;14.00;;;;;;;-1.24;100.00;100712.81;5016613;28;20037;-70
2022/12/12 09:51:09;;;;;;;30.55;13.95;;;;;;;-1.29;100.00;100679.91;5001826;28;20799;-69
2022/12/12 09:53:34;;;;;;;29.05;13.55;;;;;;;-1.38;100.00;100650.75;5022142;28;20029;-70
2022/12/12 09:56:17;;;;;;;26.90;13.05;;;;;;;-1.61;100.00;100612.81;5021378;28;20083;-70
2022/12/12 09:59:10;;;;;;;26.98;12.55;;;;;;;-1.52;100.00;100610.50;5026128;28;20059;-73
2022/12/12 10:01:46;;;;;;;26.52;13.32;;;;;;;-1.65;100.00;100593.81;5025698;28;20037;-71
2022/12/12 10:04:24;;;;;;;27.20;13.82;;;;;;;-1.75;100.00;100583.00;5026340;28;20045;-70
2022/12/12 10:06:56;;;;;;;31.52;14.88;;;;;;;-1.76;100.00;100567.38;5024606;28;20087;-69
2022/12/12 10:09:33;;;;;;;27.10;12.88;;;;;;;-1.77;100.00;100565.72;5025978;28;20112;-72
2022/12/12 10:12:01;;;;;;;30.20;14.23;;;;;;;-1.83;100.00;100551.19;5024016;28;20061;-69
2022/12/12 10:14:27;;;;;;;30.02;13.55;;;;;;;-1.87;100.00;100548.84;5000292;28;20021;-69
2022/12/12 10:16:55;;;;;;;26.02;13.18;;;;;;;-1.89;100.00;100541.09;5018996;28;20515;-74
2022/12/12 10:19:26;;;;;;;27.98;13.85;;;;;;;-2.00;100.00;100533.84;4998821;28;20037;-69
2022/12/12 10:21:55;;;;;;;29.92;14.88;;;;;;;-1.85;100.00;100541.75;5007367;28;20045;-70
2022/12/12 10:24:34;;;;;;;30.27;14.02;;;;;;;-1.89;100.00;100535.84;5022136;28;20033;-71
2022/12/12 10:27:08;;;;;;;28.73;13.93;;;;;;;-1.81;100.00;100527.56;5012423;28;20044;-70
2022/12/12 10:29:33;;;;;;;25.60;12.63;;;;;;;-1.84;100.00;100518.13;5005941;28;20042;-70
2022/12/12 10:32:08;;;;;;;36.07;13.07;;;;;;;-1.74;100.00;100529.72;5011369;28;20095;-70
2022/12/12 10:34:39;;;;;;;29.17;13.10;;;;;;;-1.69;100.00;100524.22;5012833;28;20311;-70
2022/12/12 10:37:47;;;;;;;31.35;14.82;;;;;;;-1.54;100.00;100532.97;5009824;28;20062;-70
2022/12/12 10:40:38;;;;;;;22.88;11.32;;;;;;;-1.49;100.00;100529.13;5016793;28;20459;-71
2022/12/12 10:43:21;;;;;;;23.50;12.55;;;;;;;-1.47;100.00;100518.59;5019478;28;20055;-69
2022/12/12 10:46:07;;;;;;;21.02;11.15;;;;;;;-1.46;100.00;100503.72;5010809;28;20034;-70
2022/12/12 10:48:33;;;;;;;25.67;12.60;;;;;;;-1.44;100.00;100492.22;5009684;28;20045;-71
2022/12/12 10:51:03;;;;;;;25.77;11.80;;;;;;;-1.45;100.00;100482.69;5009508;28;20030;-70
2022/12/12 10:53:30;;;;;;;29.38;12.20;;;;;;;-1.29;100.00;100490.44;5009665;28;20084;-70
2022/12/12 10:56:01;;;;;;;26.00;11.68;;;;;;;-1.36;100.00;100473.41;5009441;28;20030;-70
2022/12/12 10:58:41;;;;;;;25.17;12.48;;;;;;;-1.45;100.00;100453.00;5007674;28;20071;-70
2022/12/12 11:01:29;;;;;;;30.30;13.43;;;;;;;-1.63;100.00;100439.28;5022815;28;20406;-70
2022/12/12 11:03:57;;;;;;;27.48;12.95;;;;;;;-1.57;100.00;100450.22;5024172;28;20038;-70
2022/12/12 11:06:44;;;;;;;28.73;13.57;;;;;;;-1.60;100.00;100457.41;5008108;28;20132;-70
2022/12/12 11:09:26;;;;;;;26.05;13.40;;;;;;;-1.68;100.00;100454.41;5016114;28;20037;-70
2022/12/12 11:11:59;;;;;;;33.25;15.48;;;;;;;-1.75;100.00;100440.84;5010088;28;20038;-70
2022/12/12 11:14:34;;;;;;;29.17;13.27;;;;;;;-1.88;100.00;100435.47;5025455;28;20033;-70
2022/12/12 11:16:59;;;;;;;26.45;11.60;;;;;;;-1.94;100.00;100433.25;5020482;28;20048;-70
2022/12/12 11:19:26;;;;;;;29.38;13.60;;;;;;;-1.86;100.00;100451.94;5025310;28;20037;-70
2022/12/12 11:22:02;;;;;;;30.42;12.73;;;;;;;-1.88;100.00;100448.56;5009316;28;20038;-70
2022/12/12 11:24:31;;;;;;;31.27;14.07;;;;;;;-1.82;100.00;100460.47;5017257;28;20049;-70
2022/12/12 11:27:03;;;;;;;30.05;13.57;;;;;;;-1.78;100.00;100451.47;5007562;28;20122;-70
2022/12/12 11:29:50;;;;;;;26.35;12.10;;;;;;;-1.77;100.00;100461.03;5009056;28;20038;-70
2022/12/12 11:32:19;;;;;;;29.85;14.13;;;;;;;-1.69;100.00;100474.47;5005098;28;20036;-70
2022/12/12 11:34:50;;;;;;;32.47;14.55;;;;;;;-1.53;100.00;100487.50;5023002;28;20025;-70
2022/12/12 11:37:18;;;;;;;25.33;12.65;;;;;;;-1.33;100.00;100502.06;5020580;28;20038;-70